Time;durP1;ratioP1;P1;durP2;ratioP2;P2;SDS_P1;SDS_P2;PMS_P1;PMS_P2;Temp;Humidity;BMP_temperature;BMP_pressure;BME280_temperature;BME280_humidity;BME280_pressure;Samples;Min_cycle;Max_cycle;Signal;HPM_P1;HPM_P2
2022/04/07 00:02:09;;;;;;;1.75;0.90;;;14.20;99.90;;;;;;4921750;29;20032;-86
2022/04/07 00:04:35;;;;;;;2.63;1.27;;;14.10;99.90;;;;;;4902864;29;20044;-87
2022/04/07 00:07:01;;;;;;;3.35;1.23;;;14.00;99.90;;;;;;4924352;29;20088;-85
2022/04/07 00:09:27;;;;;;;3.40;0.98;;;13.90;99.90;;;;;;4925204;29;20024;-86
2022/04/07 00:11:53;;;;;;;1.20;0.82;;;13.90;99.90;;;;;;4925338;29;20024;-85
2022/04/07 00:14:19;;;;;;;2.38;1.20;;;13.70;99.90;;;;;;4925131;29;20029;-86
2022/04/07 00:16:44;;;;;;;2.13;1.30;;;13.70;99.90;;;;;;4925139;29;20080;-87
2022/04/07 00:19:10;;;;;;;1.20;1.10;;;13.60;99.90;;;;;;4925278;29;20021;-86
2022/04/07 00:21:38;;;;;;;1.85;0.88;;;13.60;99.90;;;;;;4924164;29;20025;-87
2022/04/07 00:24:05;;;;;;;1.23;0.98;;;13.50;99.90;;;;;;4922972;29;20045;-86
2022/04/07 00:26:32;;;;;;;1.27;1.00;;;13.40;99.90;;;;;;4922435;29;20025;-85
2022/04/07 00:28:58;;;;;;;4.97;1.20;;;13.30;99.90;;;;;;4924627;29;20029;-86
2022/04/07 00:31:24;;;;;;;3.83;1.02;;;13.30;99.90;;;;;;4924755;29;20088;-86
2022/04/07 00:33:50;;;;;;;1.70;1.00;;;13.20;99.90;;;;;;4924347;29;20028;-85
2022/04/07 00:36:16;;;;;;;1.75;0.90;;;13.20;99.90;;;;;;4924963;29;20029;-86
2022/04/07 00:38:42;;;;;;;1.23;1.05;;;13.10;99.90;;;;;;4921958;29;20033;-86
2022/04/07 00:41:07;;;;;;;3.25;1.08;;;13.00;99.90;;;;;;4906809;29;20039;-85
2022/04/07 00:43:36;;;;;;;4.25;1.08;;;13.00;99.90;;;;;;4922410;29;20034;-86
2022/04/07 00:46:03;;;;;;;1.83;1.13;;;13.00;99.90;;;;;;4922153;29;20033;-87
2022/04/07 00:48:30;;;;;;;1.08;0.90;;;13.00;99.90;;;;;;4922170;29;20037;-85
2022/04/07 00:50:57;;;;;;;2.47;1.30;;;13.00;99.90;;;;;;4922635;29;20036;-86
2022/04/07 00:53:23;;;;;;;5.78;1.20;;;13.00;99.90;;;;;;4916680;29;20048;-85
2022/04/07 00:55:53;;;;;;;1.10;0.95;;;13.00;99.90;;;;;;4915126;29;20063;-87
2022/04/07 00:58:19;;;;;;;1.58;1.08;;;13.00;99.90;;;;;;4914270;29;20048;-87
2022/04/07 01:00:45;;;;;;;3.22;1.17;;;13.00;99.90;;;;;;4910892;29;20029;-86
2022/04/07 01:03:13;;;;;;;0.85;0.82;;;13.00;99.90;;;;;;4912775;29;20067;-86
2022/04/07 01:05:38;;;;;;;4.40;1.00;;;13.00;99.90;;;;;;4912141;29;20092;-85
2022/04/07 01:08:08;;;;;;;2.10;0.82;;;13.00;99.90;;;;;;4912740;29;20021;-85
2022/04/07 01:10:34;;;;;;;0.90;0.90;;;13.00;99.90;;;;;;4909233;29;20032;-86
2022/04/07 01:12:59;;;;;;;1.95;0.88;;;13.00;99.90;;;;;;4922772;29;20037;-86
2022/04/07 01:15:25;;;;;;;0.85;0.80;;;13.00;99.90;;;;;;4898973;29;20048;-85
2022/04/07 01:17:51;;;;;;;0.90;0.80;;;13.00;99.90;;;;;;4913553;29;20033;-85
2022/04/07 01:20:17;;;;;;;2.13;0.90;;;13.00;99.90;;;;;;4914098;29;20132;-86
2022/04/07 01:22:46;;;;;;;0.80;0.80;;;13.00;99.90;;;;;;4913644;29;20032;-87
2022/04/07 01:25:13;;;;;;;1.95;0.93;;;13.00;99.90;;;;;;4916912;29;20016;-86
2022/04/07 01:27:39;;;;;;;1.08;0.85;;;13.00;99.90;;;;;;4918875;29;20048;-88
2022/04/07 01:30:08;;;;;;;1.77;0.80;;;13.00;99.90;;;;;;4918482;29;20119;-85
2022/04/07 01:32:43;;;;;;;2.40;0.80;;;13.00;99.90;;;;;;4917929;29;20056;-86
2022/04/07 01:35:10;;;;;;;;;;;12.90;99.90;;;;;;4918246;29;20028;-85
2022/04/07 01:37:38;;;;;;;1.00;0.65;;;12.80;99.90;;;;;;4915248;29;20364;-85
2022/04/07 01:40:07;;;;;;;1.20;0.70;;;12.80;99.90;;;;;;4916143;29;20036;-86
2022/04/07 01:42:34;;;;;;;2.13;0.70;;;12.80;99.90;;;;;;4915998;29;20095;-85
2022/04/07 01:45:02;;;;;;;1.05;0.60;;;12.80;99.90;;;;;;4915321;29;20046;-85
2022/04/07 01:47:30;;;;;;;0.75;0.70;;;12.80;99.90;;;;;;4912051;29;20013;-85
2022/04/07 01:50:08;;;;;;;0.70;0.63;;;12.70;99.90;;;;;;4921927;29;20045;-86
2022/04/07 01:52:38;;;;;;;2.45;0.80;;;12.70;99.90;;;;;;4916833;29;20040;-86
2022/04/07 01:55:04;;;;;;;0.40;0.40;;;12.70;99.90;;;;;;4916641;29;20114;-87
2022/04/07 01:57:31;;;;;;;1.08;0.50;;;12.70;99.90;;;;;;4916750;29;20029;-87
2022/04/07 01:59:58;;;;;;;0.73;0.60;;;12.80;99.90;;;;;;4902017;29;20044;-87
2022/04/07 02:02:25;;;;;;;0.50;0.40;;;12.80;99.90;;;;;;4916847;29;20020;-86
2022/04/07 02:04:59;;;;;;;0.52;0.50;;;12.70;99.90;;;;;;4918857;29;20508;-85
2022/04/07 02:07:32;;;;;;;2.92;0.60;;;12.80;99.90;;;;;;4918297;29;20076;-85
2022/04/07 02:09:59;;;;;;;0.30;0.30;;;12.80;99.90;;;;;;4918390;29;20052;-87
2022/04/07 02:12:29;;;;;;;1.55;0.40;;;12.80;99.90;;;;;;4918366;29;20024;-86
2022/04/07 02:14:56;;;;;;;0.70;0.57;;;12.80;99.90;;;;;;4917721;29;20080;-87
2022/04/07 02:17:22;;;;;;;0.80;0.40;;;12.80;99.90;;;;;;4917673;29;20024;-86
2022/04/07 02:19:50;;;;;;;0.63;0.40;;;12.90;99.90;;;;;;4917312;29;20539;-86
2022/04/07 02:22:16;;;;;;;0.50;0.50;;;12.90;99.90;;;;;;4915743;29;20458;-86
2022/04/07 02:24:42;;;;;;;0.45;0.40;;;13.00;99.90;;;;;;4917551;29;20017;-88
2022/04/07 02:27:08;;;;;;;0.52;0.50;;;12.90;99.90;;;;;;4922090;29;20111;-86
2022/04/07 02:29:34;;;;;;;0.40;0.38;;;13.00;99.90;;;;;;4918169;29;20088;-85
2022/04/07 02:32:01;;;;;;;0.30;0.30;;;12.90;99.90;;;;;;4918143;29;20043;-86
2022/04/07 02:34:26;;;;;;;2.42;0.68;;;13.00;99.90;;;;;;4917504;29;20029;-88
2022/04/07 02:36:52;;;;;;;1.88;0.40;;;13.00;99.90;;;;;;4917821;29;20049;-87
2022/04/07 02:39:18;;;;;;;0.77;0.40;;;12.90;99.90;;;;;;4917447;29;20124;-86
2022/04/07 02:41:44;;;;;;;0.30;0.30;;;12.90;99.90;;;;;;4917067;29;20021;-85
2022/04/07 02:44:09;;;;;;;0.45;0.38;;;12.80;99.90;;;;;;4917001;29;20097;-87
2022/04/07 02:46:35;;;;;;;0.40;0.32;;;12.70;99.90;;;;;;4917654;29;20044;-86
2022/04/07 02:49:01;;;;;;;0.90;0.40;;;12.70;99.90;;;;;;4917773;29;20036;-86
2022/04/07 02:51:27;;;;;;;0.30;0.30;;;12.60;99.90;;;;;;4916490;29;20039;-86
2022/04/07 02:53:57;;;;;;;0.30;0.30;;;12.60;99.90;;;;;;4909089;29;20611;-87
2022/04/07 02:56:24;;;;;;;1.02;0.50;;;12.50;99.90;;;;;;4906468;29;20032;-88
2022/04/07 02:58:51;;;;;;;1.75;0.68;;;12.50;99.90;;;;;;4910118;29;20032;-85
2022/04/07 03:01:17;;;;;;;0.50;0.50;;;12.40;99.90;;;;;;4918641;29;20017;-86
2022/04/07 03:03:43;;;;;;;0.38;0.30;;;12.40;99.90;;;;;;4919776;29;20033;-86
2022/04/07 03:06:09;;;;;;;1.08;0.40;;;12.40;99.90;;;;;;4917077;29;20039;-87
2022/04/07 03:08:35;;;;;;;1.95;0.55;;;12.30;99.90;;;;;;4915954;29;20101;-86
2022/04/07 03:11:02;;;;;;;0.90;0.50;;;12.20;99.90;;;;;;4915868;29;20029;-87
2022/04/07 03:13:27;;;;;;;1.15;0.47;;;12.20;99.90;;;;;;4919041;29;20135;-86
2022/04/07 03:15:54;;;;;;;1.35;0.50;;;12.10;99.90;;;;;;4919371;29;20041;-87
2022/04/07 03:18:20;;;;;;;0.95;0.57;;;12.00;99.90;;;;;;4919794;29;20041;-86
2022/04/07 03:20:46;;;;;;;0.73;0.57;;;11.90;99.90;;;;;;4919798;29;20083;-84
2022/04/07 03:23:12;;;;;;;1.83;0.70;;;11.90;99.90;;;;;;4919419;29;20046;-87
2022/04/07 03:25:38;;;;;;;0.63;0.50;;;11.80;99.90;;;;;;4920827;29;20065;-87
2022/04/07 03:28:04;;;;;;;3.67;0.60;;;11.70;99.90;;;;;;4920169;29;20020;-87
2022/04/07 03:30:30;;;;;;;0.75;0.63;;;11.70;99.90;;;;;;4919100;29;20051;-86
2022/04/07 03:32:56;;;;;;;1.17;0.60;;;11.60;99.90;;;;;;4921583;29;20032;-86
2022/04/07 03:35:22;;;;;;;1.75;0.55;;;11.50;99.90;;;;;;4919805;29;20057;-85
2022/04/07 03:37:48;;;;;;;1.48;0.63;;;11.50;99.90;;;;;;4922860;29;20040;-86
2022/04/07 03:40:14;;;;;;;0.88;0.57;;;11.50;99.90;;;;;;4922004;29;20048;-86
2022/04/07 03:42:40;;;;;;;1.42;0.60;;;11.40;99.90;;;;;;4923796;29;20024;-86
2022/04/07 03:45:06;;;;;;;2.08;0.73;;;11.40;99.90;;;;;;4921492;29;20035;-85
2022/04/07 03:47:32;;;;;;;0.70;0.50;;;11.40;99.90;;;;;;4922393;29;20104;-86
2022/04/07 03:49:58;;;;;;;1.90;0.70;;;11.40;99.90;;;;;;4923386;29;20043;-86
2022/04/07 03:52:24;;;;;;;0.70;0.70;;;11.40;99.90;;;;;;4923360;29;20048;-87
2022/04/07 03:54:50;;;;;;;0.73;0.60;;;11.40;99.90;;;;;;4922917;29;20080;-86
2022/04/07 03:57:16;;;;;;;3.72;0.90;;;11.30;99.90;;;;;;4924085;29;20033;-84
2022/04/07 03:59:42;;;;;;;1.77;0.77;;;11.30;99.90;;;;;;4923311;29;20056;-85
2022/04/07 04:02:10;;;;;;;0.93;0.60;;;11.30;99.90;;;;;;4923438;29;20048;-86
2022/04/07 04:04:36;;;;;;;0.93;0.70;;;11.30;99.90;;;;;;4923907;29;20021;-87
2022/04/07 04:07:03;;;;;;;3.20;0.90;;;11.30;99.90;;;;;;4924493;29;20020;-86
2022/04/07 04:09:29;;;;;;;1.67;0.73;;;11.30;99.90;;;;;;4924551;29;20032;-86
2022/04/07 04:11:54;;;;;;;1.83;0.63;;;11.20;99.90;;;;;;4923976;29;20096;-85
2022/04/07 04:14:20;;;;;;;0.60;0.60;;;11.20;99.90;;;;;;4924558;29;20016;-86
2022/04/07 04:16:46;;;;;;;1.40;0.70;;;11.20;99.90;;;;;;4924348;29;20027;-87
2022/04/07 04:19:12;;;;;;;1.38;0.70;;;11.20;99.90;;;;;;4924772;29;20032;-85
2022/04/07 04:21:38;;;;;;;10.85;1.00;;;11.10;99.90;;;;;;4924244;29;20118;-87
2022/04/07 04:24:04;;;;;;;5.55;0.73;;;11.20;99.90;;;;;;4922533;29;20041;-86
2022/04/07 04:26:30;;;;;;;0.98;0.65;;;11.20;99.90;;;;;;4923274;29;20036;-86
2022/04/07 04:28:55;;;;;;;1.58;0.77;;;11.20;99.90;;;;;;4923223;29;20028;-85
2022/04/07 04:31:24;;;;;;;0.80;0.50;;;11.20;99.90;;;;;;4917586;23;20064;-83
2022/04/07 04:33:55;;;;;;;3.47;0.80;;;11.20;99.90;;;;;;4898401;29;20020;-79
2022/04/07 04:36:22;;;;;;;1.40;0.60;;;11.20;99.90;;;;;;4900504;29;20035;-83
2022/04/07 04:38:48;;;;;;;0.90;0.80;;;11.30;99.90;;;;;;4894910;29;20025;-84
2022/04/07 04:41:14;;;;;;;1.50;0.80;;;11.30;99.90;;;;;;4907111;29;20025;-83
2022/04/07 04:43:40;;;;;;;2.95;1.25;;;11.30;99.90;;;;;;4900459;29;20080;-83
2022/04/07 04:46:07;;;;;;;1.58;0.90;;;11.30;99.90;;;;;;4905134;29;20026;-83
2022/04/07 04:48:38;;;;;;;1.02;0.70;;;11.20;99.90;;;;;;4912125;29;20032;-82
2022/04/07 04:51:04;;;;;;;1.42;0.70;;;11.30;99.90;;;;;;4932227;29;20036;-83
2022/04/07 04:53:30;;;;;;;3.95;0.85;;;11.30;99.90;;;;;;4915385;29;20039;-82
2022/04/07 04:55:56;;;;;;;3.17;0.90;;;11.30;99.90;;;;;;4901210;29;20025;-82
2022/04/07 04:58:22;;;;;;;1.13;0.77;;;11.30;99.90;;;;;;4902466;29;20029;-82
2022/04/07 05:00:48;;;;;;;2.20;0.82;;;11.30;99.90;;;;;;4902973;29;20059;-79
2022/04/07 05:03:14;;;;;;;0.50;0.50;;;11.30;99.90;;;;;;4903211;29;20087;-80
2022/04/07 05:05:40;;;;;;;3.28;0.73;;;11.30;99.90;;;;;;4902471;29;20036;-80
2022/04/07 05:08:06;;;;;;;1.60;0.80;;;11.30;99.90;;;;;;4902606;29;20025;-80
2022/04/07 05:10:32;;;;;;;1.95;0.70;;;11.40;99.90;;;;;;4906522;29;20036;-83
2022/04/07 05:13:01;;;;;;;0.70;0.70;;;11.40;99.90;;;;;;4919505;29;20158;-81
2022/04/07 05:15:28;;;;;;;0.73;0.68;;;11.50;99.90;;;;;;4903599;29;20089;-80
2022/04/07 05:17:54;;;;;;;1.27;0.80;;;11.50;99.90;;;;;;4919766;29;20096;-80
2022/04/07 05:20:23;;;;;;;2.03;1.00;;;11.60;99.90;;;;;;4919282;29;20036;-81
2022/04/07 05:22:49;;;;;;;0.80;0.60;;;11.60;99.90;;;;;;4905069;29;20017;-80
2022/04/07 05:25:15;;;;;;;0.90;0.70;;;11.70;99.90;;;;;;4915032;29;20028;-81
2022/04/07 05:27:43;;;;;;;2.55;1.00;;;11.70;99.90;;;;;;4930124;29;20020;-79
2022/04/07 05:30:15;;;;;;;5.10;0.90;;;11.80;99.90;;;;;;4913995;29;20129;-82
2022/04/07 05:32:45;;;;;;;1.83;0.82;;;11.80;99.90;;;;;;4919945;29;20028;-83
2022/04/07 05:35:13;;;;;;;1.52;1.00;;;11.80;99.90;;;;;;4905429;29;20032;-83
2022/04/07 05:37:40;;;;;;;2.15;1.00;;;11.80;99.90;;;;;;4899076;29;20076;-80
2022/04/07 05:40:08;;;;;;;2.60;1.00;;;11.80;99.90;;;;;;4931659;29;20032;-81
2022/04/07 05:42:34;;;;;;;2.08;1.25;;;11.80;99.90;;;;;;4910603;29;20029;-81
2022/04/07 05:45:00;;;;;;;5.53;1.45;;;11.70;99.90;;;;;;4909016;29;20025;-81
2022/04/07 05:47:25;;;;;;;3.20;1.30;;;11.70;99.90;;;;;;4909530;29;20024;-83
2022/04/07 05:49:56;;;;;;;5.82;1.55;;;11.80;99.90;;;;;;4907533;29;20057;-82
2022/04/07 05:52:22;;;;;;;1.85;1.40;;;11.80;99.90;;;;;;4924540;29;20020;-81
2022/04/07 05:54:48;;;;;;;3.70;1.30;;;11.90;99.90;;;;;;4907320;29;20041;-82
2022/04/07 05:57:14;;;;;;;6.72;1.50;;;11.90;99.90;;;;;;4910591;29;20028;-80
2022/04/07 05:59:40;;;;;;;6.57;1.60;;;12.00;99.90;;;;;;4923059;29;20029;-81
2022/04/07 06:02:07;;;;;;;6.45;1.65;;;12.00;99.90;;;;;;4921000;29;20033;-83
2022/04/07 06:04:32;;;;;;;4.20;1.50;;;12.00;99.90;;;;;;4903736;29;20021;-82
2022/04/07 06:06:58;;;;;;;2.85;1.50;;;12.00;99.90;;;;;;4922074;29;20037;-82
2022/04/07 06:09:24;;;;;;;8.52;1.58;;;11.90;99.90;;;;;;4911245;29;20114;-82
2022/04/07 06:11:50;;;;;;;3.50;1.30;;;11.90;99.90;;;;;;4915452;29;20043;-82
2022/04/07 06:14:16;;;;;;;4.38;1.88;;;12.00;99.90;;;;;;4916497;29;20029;-83
2022/04/07 06:16:41;;;;;;;3.10;1.48;;;12.00;99.90;;;;;;4931576;29;20044;-83
2022/04/07 06:19:07;;;;;;;3.17;1.50;;;12.10;99.90;;;;;;4914137;29;20032;-82
2022/04/07 06:21:33;;;;;;;3.72;1.58;;;12.30;99.90;;;;;;4916240;29;20100;-84
2022/04/07 06:23:59;;;;;;;1.55;1.25;;;12.40;99.90;;;;;;4915597;29;20021;-82
2022/04/07 06:26:25;;;;;;;2.72;1.40;;;12.50;99.90;;;;;;4933159;29;20104;-83
2022/04/07 06:28:51;;;;;;;3.40;1.40;;;12.60;99.90;;;;;;4928589;29;20036;-84
2022/04/07 06:31:17;;;;;;;1.70;1.30;;;12.70;99.90;;;;;;4916112;29;20136;-81
2022/04/07 06:33:43;;;;;;;3.58;1.60;;;12.80;99.90;;;;;;4932260;29;20053;-83
2022/04/07 06:36:09;;;;;;;4.50;1.20;;;12.90;99.90;;;;;;4918123;29;20064;-82
2022/04/07 06:38:34;;;;;;;1.90;1.30;;;12.90;99.90;;;;;;4930346;29;20103;-83
2022/04/07 06:41:00;;;;;;;2.42;1.52;;;13.10;99.90;;;;;;4930380;29;20033;-83
2022/04/07 06:43:27;;;;;;;2.15;1.40;;;13.20;99.90;;;;;;4914549;29;20029;-83
2022/04/07 06:45:53;;;;;;;4.25;1.63;;;13.40;99.90;;;;;;4928121;29;20028;-84
2022/04/07 06:48:19;;;;;;;1.85;1.13;;;13.50;99.90;;;;;;4916829;29;20127;-85
2022/04/07 06:50:45;;;;;;;1.70;1.17;;;13.60;99.90;;;;;;4916591;29;20052;-85
2022/04/07 06:53:12;;;;;;;6.20;1.40;;;13.70;99.90;;;;;;4916874;29;20028;-84
2022/04/07 06:55:38;;;;;;;3.45;1.13;;;13.80;99.90;;;;;;4917168;29;20037;-81
2022/04/07 06:58:10;;;;;;;4.30;1.45;;;13.80;99.90;;;;;;4918652;29;20033;-82
2022/04/07 07:00:43;;;;;;;3.05;1.50;;;13.80;99.90;;;;;;4919370;29;20086;-82
2022/04/07 07:03:09;;;;;;;2.92;1.20;;;13.90;99.90;;;;;;4919250;29;20047;-81
2022/04/07 07:05:36;;;;;;;3.50;1.23;;;14.00;99.90;;;;;;4934211;29;20025;-84
2022/04/07 07:08:20;;;;;;;1.95;1.20;;;14.10;99.90;;;;;;4918439;29;20037;-81
2022/04/07 07:10:48;;;;;;;2.65;1.38;;;14.30;99.90;;;;;;4919416;29;20040;-82
2022/04/07 07:13:20;;;;;;;2.45;1.35;;;14.40;99.90;;;;;;4917660;29;20072;-81
2022/04/07 07:15:47;;;;;;;2.00;1.40;;;14.40;99.90;;;;;;4932238;29;20020;-85
2022/04/07 07:18:13;;;;;;;2.50;1.20;;;14.60;99.90;;;;;;4931318;29;20036;-85
2022/04/07 07:20:39;;;;;;;1.35;1.00;;;14.70;99.90;;;;;;4914583;29;20037;-84
2022/04/07 07:23:05;;;;;;;2.88;0.90;;;14.60;99.90;;;;;;4929088;29;20051;-84
2022/04/07 07:25:31;;;;;;;3.72;1.00;;;14.60;99.90;;;;;;4932542;29;20057;-84
2022/04/07 07:27:58;;;;;;;1.70;1.23;;;14.60;99.90;;;;;;4917877;29;20036;-84
2022/04/07 07:30:25;;;;;;;4.68;1.30;;;14.60;99.90;;;;;;4932778;29;20044;-83
2022/04/07 07:32:51;;;;;;;3.42;1.23;;;14.70;99.90;;;;;;4929746;29;20033;-83
2022/04/07 07:35:18;;;;;;;2.10;1.50;;;14.80;99.90;;;;;;4927870;29;20036;-84
2022/04/07 07:38:02;;;;;;;1.83;1.00;;;14.90;99.90;;;;;;4928071;29;20037;-85
2022/04/07 07:40:31;;;;;;;7.15;1.52;;;14.80;99.90;;;;;;4910333;29;20033;-84
2022/04/07 07:42:59;;;;;;;4.82;1.45;;;14.80;99.90;;;;;;4926390;29;20021;-82
2022/04/07 07:45:30;;;;;;;4.22;1.48;;;14.70;99.90;;;;;;4913990;29;20043;-84
2022/04/07 07:47:56;;;;;;;3.67;1.15;;;14.70;99.90;;;;;;4927973;29;20041;-83
2022/04/07 07:50:22;;;;;;;4.45;1.10;;;14.70;99.90;;;;;;4925836;29;20128;-84
2022/04/07 07:52:48;;;;;;;3.78;1.17;;;14.70;99.90;;;;;;4913412;29;20070;-83
2022/04/07 07:55:14;;;;;;;4.40;1.67;;;14.70;99.90;;;;;;4913137;29;20043;-83
2022/04/07 07:57:40;;;;;;;3.33;1.20;;;14.70;99.90;;;;;;4927532;29;20043;-84
2022/04/07 08:00:09;;;;;;;7.60;1.88;;;14.70;99.90;;;;;;4915184;29;20028;-84
2022/04/07 08:02:36;;;;;;;3.38;1.23;;;14.70;99.90;;;;;;4916708;29;20430;-81
2022/04/07 08:05:03;;;;;;;1.30;1.02;;;14.80;99.90;;;;;;4933540;29;20028;-82
2022/04/07 08:07:29;;;;;;;1.85;1.25;;;14.90;99.90;;;;;;4921458;29;20458;-84
2022/04/07 08:09:58;;;;;;;2.35;1.40;;;15.00;99.90;;;;;;4921033;29;20085;-81
2022/04/07 08:12:26;;;;;;;2.83;1.20;;;15.10;99.90;;;;;;4911910;29;20052;-85
2022/04/07 08:14:52;;;;;;;4.70;1.70;;;15.30;99.90;;;;;;4916338;29;20057;-82
2022/04/07 08:17:19;;;;;;;2.60;1.20;;;15.60;99.90;;;;;;4931554;29;20083;-82
2022/04/07 08:19:45;;;;;;;1.27;1.13;;;15.60;99.90;;;;;;4914375;29;20029;-86
2022/04/07 08:22:11;;;;;;;6.78;1.35;;;15.70;99.90;;;;;;4912980;29;20028;-85
2022/04/07 08:24:36;;;;;;;2.15;1.20;;;15.80;99.90;;;;;;4915206;29;20021;-85
2022/04/07 08:27:04;;;;;;;7.75;1.33;;;15.90;99.90;;;;;;4917813;29;20029;-83
2022/04/07 08:29:30;;;;;;;6.50;1.00;;;15.90;99.90;;;;;;4925928;29;20088;-83
2022/04/07 08:31:56;;;;;;;2.42;1.13;;;16.00;99.90;;;;;;4927863;29;20047;-84
2022/04/07 08:34:22;;;;;;;2.03;1.27;;;16.20;99.90;;;;;;4926120;29;20452;-85
2022/04/07 08:36:48;;;;;;;3.70;1.52;;;16.40;99.90;;;;;;4911161;29;20460;-83
2022/04/07 08:39:14;;;;;;;2.88;1.08;;;16.40;99.90;;;;;;4910469;29;20059;-83
2022/04/07 08:41:44;;;;;;;4.00;1.20;;;16.20;99.90;;;;;;4925546;29;20040;-83
2022/04/07 08:44:10;;;;;;;2.92;1.38;;;16.20;99.90;;;;;;4920851;29;20033;-84
2022/04/07 08:46:35;;;;;;;3.17;1.20;;;16.20;99.90;;;;;;4912958;29;20254;-85
2022/04/07 08:49:03;;;;;;;5.75;1.75;;;16.30;99.90;;;;;;4927178;29;20044;-83
2022/04/07 08:51:29;;;;;;;7.68;1.40;;;16.40;99.90;;;;;;4916491;29;20021;-82
2022/04/07 08:53:56;;;;;;;6.57;2.05;;;16.40;99.90;;;;;;4924177;29;20037;-85
2022/04/07 08:56:24;;;;;;;2.08;1.23;;;16.50;99.90;;;;;;4910256;29;20032;-84
2022/04/07 08:58:51;;;;;;;1.10;1.00;;;16.70;99.90;;;;;;4925516;29;20029;-84
2022/04/07 09:01:16;;;;;;;2.00;1.33;;;16.50;99.90;;;;;;4924944;29;20035;-83
2022/04/07 09:03:43;;;;;;;4.22;1.00;;;16.40;99.90;;;;;;4910274;29;20024;-85
2022/04/07 09:06:09;;;;;;;1.80;1.35;;;16.40;99.90;;;;;;4910985;29;20450;-86
2022/04/07 09:08:37;;;;;;;4.15;1.10;;;16.20;99.90;;;;;;4927109;29;20040;-83
2022/04/07 09:11:06;;;;;;;7.25;1.48;;;16.20;99.90;;;;;;4919210;29;20020;-81
2022/04/07 09:13:39;;;;;;;3.53;1.30;;;16.40;99.90;;;;;;4911770;29;20100;-82
2022/04/07 09:16:13;;;;;;;3.58;1.40;;;16.70;99.90;;;;;;4924999;29;20060;-84
2022/04/07 09:18:49;;;;;;;7.25;1.42;;;17.10;99.90;;;;;;4910345;29;20552;-85
2022/04/07 09:21:31;;;;;;;3.03;1.13;;;17.70;99.90;;;;;;4909607;29;20036;-85
2022/04/07 09:23:58;;;;;;;2.67;1.60;;;18.40;99.90;;;;;;4912671;29;20063;-83
2022/04/07 09:26:24;;;;;;;2.05;1.20;;;19.40;98.10;;;;;;4929658;29;20028;-85
2022/04/07 09:28:58;;;;;;;1.05;0.98;;;19.30;96.50;;;;;;4909382;29;20136;-83
2022/04/07 09:31:24;;;;;;;4.35;0.80;;;19.50;95.70;;;;;;4914240;29;20033;-82
2022/04/07 09:33:56;;;;;;;3.05;0.98;;;20.30;94.50;;;;;;4914646;29;20011;-82
2022/04/07 09:36:23;;;;;;;1.73;0.80;;;21.20;92.80;;;;;;4933426;29;20021;-84
2022/04/07 09:38:53;;;;;;;1.40;0.90;;;21.60;91.20;;;;;;4911542;29;20052;-86
2022/04/07 09:41:22;;;;;;;3.55;1.00;;;21.70;90.90;;;;;;4931696;29;20096;-84
2022/04/07 09:43:48;;;;;;;1.10;0.80;;;22.00;90.00;;;;;;4935996;29;20036;-82
2022/04/07 09:46:16;;;;;;;1.35;0.73;;;22.70;88.00;;;;;;4918103;29;20079;-84
2022/04/07 09:49:07;;;;;;;6.18;1.40;;;23.50;85.70;;;;;;4929628;29;20035;-86
2022/04/07 09:51:48;;;;;;;4.55;1.17;;;24.20;82.80;;;;;;4911429;29;20036;-86
2022/04/07 09:54:16;;;;;;;2.80;1.08;;;24.00;81.10;;;;;;4916731;29;20052;-84
2022/04/07 09:56:46;;;;;;;4.50;0.90;;;23.50;80.50;;;;;;4916068;29;20026;-82
2022/04/07 09:59:14;;;;;;;4.45;1.27;;;22.60;81.50;;;;;;4929274;29;20636;-83
2022/04/07 10:01:39;;;;;;;4.65;1.70;;;21.70;83.20;;;;;;4926806;29;20053;-86
2022/04/07 10:04:06;;;;;;;1.70;0.88;;;21.30;84.70;;;;;;4929498;29;20037;-83
2022/04/07 10:06:35;;;;;;;4.25;1.00;;;20.80;84.60;;;;;;4916750;29;20024;-84
2022/04/07 10:09:04;;;;;;;3.80;1.10;;;20.70;85.60;;;;;;4915076;29;20370;-83
2022/04/07 10:11:33;;;;;;;2.30;0.70;;;20.90;84.50;;;;;;4916347;29;20029;-83
2022/04/07 10:14:00;;;;;;;4.53;1.05;;;21.50;82.90;;;;;;4915364;29;20191;-83
2022/04/07 10:16:27;;;;;;;0.98;0.80;;;21.70;81.90;;;;;;4913786;29;20024;-86
2022/04/07 10:19:00;;;;;;;1.55;0.63;;;21.50;81.60;;;;;;4924234;29;20033;-87
2022/04/07 10:21:55;;;;;;;1.52;0.80;;;21.60;80.30;;;;;;4910932;29;20389;-85
2022/04/07 10:24:46;;;;;;;1.25;0.75;;;21.70;80.00;;;;;;4926667;29;20032;-86
2022/04/07 10:27:14;;;;;;;0.73;0.70;;;21.60;78.30;;;;;;4926778;29;20039;-86
2022/04/07 10:29:40;;;;;;;2.85;0.80;;;21.60;76.10;;;;;;4911348;29;20028;-85
2022/04/07 10:32:11;;;;;;;1.05;0.80;;;21.50;76.10;;;;;;4960116;23;20056;-85
2022/04/07 10:34:53;;;;;;;2.35;1.10;;;22.10;75.00;;;;;;4918702;29;20028;-84
2022/04/07 10:37:41;;;;;;;0.88;0.70;;;22.30;73.30;;;;;;4919218;29;20043;-84
2022/04/07 10:40:35;;;;;;;2.75;0.75;;;22.30;73.70;;;;;;4920849;29;20109;-83
2022/04/07 10:43:05;;;;;;;4.53;1.02;;;21.80;74.00;;;;;;4919948;29;20097;-85
2022/04/07 10:45:34;;;;;;;0.80;0.80;;;21.40;74.80;;;;;;4917830;29;20112;-85
2022/04/07 10:48:24;;;;;;;1.75;0.70;;;21.60;75.30;;;;;;4917054;29;20037;-85
2022/04/07 10:50:58;;;;;;;3.90;0.82;;;22.80;73.30;;;;;;4916028;29;20017;-84
2022/04/07 10:53:36;;;;;;;3.08;0.90;;;23.90;71.00;;;;;;4913043;29;20035;-83
2022/04/07 10:56:13;;;;;;;7.10;1.10;;;25.10;67.30;;;;;;4909029;29;20088;-85
2022/04/07 10:58:48;;;;;;;2.00;0.60;;;24.20;67.60;;;;;;4910906;29;20025;-83
2022/04/07 11:01:36;;;;;;;8.75;1.10;;;25.20;65.50;;;;;;4909005;29;20032;-84
2022/04/07 11:04:24;;;;;;;4.93;1.60;;;26.10;63.90;;;;;;4907411;29;20104;-84
2022/04/07 11:07:05;;;;;;;3.60;1.05;;;26.70;62.00;;;;;;4908577;29;20032;-82
2022/04/07 11:09:49;;;;;;;1.95;0.85;;;25.40;62.80;;;;;;4907236;29;20087;-84
2022/04/07 11:12:31;;;;;;;2.42;0.80;;;26.40;62.30;;;;;;4906392;29;20393;-83
2022/04/07 11:15:03;;;;;;;1.65;0.65;;;27.70;61.00;;;;;;4906740;29;20036;-85
2022/04/07 11:17:35;;;;;;;2.60;0.60;;;27.40;59.10;;;;;;4916946;29;20036;-84
2022/04/07 11:20:03;;;;;;;0.95;0.60;;;27.30;59.40;;;;;;4920269;29;20037;-86
2022/04/07 11:22:58;;;;;;;5.65;0.75;;;28.20;58.90;;;;;;4912874;29;20044;-85
2022/04/07 11:25:31;;;;;;;0.60;0.60;;;28.40;58.30;;;;;;4912767;29;20080;-83
2022/04/07 11:28:03;;;;;;;7.00;0.80;;;29.50;57.20;;;;;;4914132;29;20037;-86
2022/04/07 11:30:40;;;;;;;1.83;0.80;;;30.10;56.40;;;;;;4912908;29;20096;-84
2022/04/07 11:33:27;;;;;;;1.50;0.70;;;30.80;54.90;;;;;;4914271;29;20033;-85
2022/04/07 11:35:59;;;;;;;4.40;0.85;;;30.80;54.80;;;;;;4904687;29;20040;-85
2022/04/07 11:38:30;;;;;;;2.22;0.70;;;30.80;54.40;;;;;;4916172;29;20031;-84
2022/04/07 11:41:03;;;;;;;0.88;0.55;;;29.30;55.80;;;;;;4920569;29;20068;-81
2022/04/07 11:43:30;;;;;;;3.30;0.77;;;30.70;54.10;;;;;;4920864;29;20016;-86
2022/04/07 11:45:56;;;;;;;1.02;0.60;;;31.50;53.20;;;;;;4918352;29;20021;-83
2022/04/07 11:48:23;;;;;;;4.38;0.90;;;29.40;54.00;;;;;;4918179;29;20452;-83
2022/04/07 11:50:50;;;;;;;5.53;1.10;;;29.30;54.70;;;;;;4920152;29;20082;-85
2022/04/07 11:53:19;;;;;;;4.05;1.05;;;29.30;54.50;;;;;;4922448;29;20032;-85
2022/04/07 11:55:45;;;;;;;2.60;1.15;;;28.60;55.00;;;;;;4916359;29;20033;-85
2022/04/07 11:58:15;;;;;;;4.00;1.00;;;27.60;56.10;;;;;;4920593;29;20024;-86
2022/04/07 12:00:41;;;;;;;7.07;1.00;;;27.90;56.30;;;;;;4920616;29;20092;-85
2022/04/07 12:03:07;;;;;;;2.30;0.77;;;29.10;54.40;;;;;;4916218;29;20029;-84
2022/04/07 12:05:44;;;;;;;1.75;0.80;;;29.80;52.40;;;;;;4914722;29;20036;-84
2022/04/07 12:08:14;;;;;;;3.80;0.73;;;30.50;51.50;;;;;;4915929;29;20048;-85
2022/04/07 12:10:45;;;;;;;1.70;0.52;;;30.20;51.90;;;;;;4913934;29;20124;-85
2022/04/07 12:13:11;;;;;;;3.40;0.65;;;30.80;51.50;;;;;;4914249;29;20037;-85
2022/04/07 12:15:38;;;;;;;4.90;0.60;;;30.00;50.80;;;;;;4914642;29;20108;-85
2022/04/07 12:18:09;;;;;;;2.65;0.60;;;29.80;51.10;;;;;;4913479;29;20124;-85
2022/04/07 12:20:36;;;;;;;1.23;0.50;;;29.40;51.30;;;;;;4911980;29;20041;-84
2022/04/07 12:23:10;;;;;;;3.55;0.60;;;29.30;51.40;;;;;;4912725;29;20031;-85
2022/04/07 12:25:37;;;;;;;2.47;0.73;;;29.60;51.50;;;;;;4913362;29;20028;-87
2022/04/07 12:28:33;;;;;;;3.60;0.98;;;29.90;51.00;;;;;;4913551;29;20035;-85
2022/04/07 12:30:59;;;;;;;2.05;0.60;;;29.90;50.70;;;;;;4913476;29;20080;-86
2022/04/07 12:33:45;;;;;;;3.00;0.70;;;29.50;51.00;;;;;;4914845;29;20446;-88
2022/04/07 12:36:12;;;;;;;1.73;0.98;;;29.30;51.60;;;;;;4914602;29;20029;-86
2022/04/07 12:38:40;;;;;;;2.22;0.60;;;29.00;51.20;;;;;;4919737;29;20028;-85
2022/04/07 12:41:16;;;;;;;3.65;0.70;;;27.90;50.70;;;;;;4919280;29;20068;-84
2022/04/07 12:43:50;;;;;;;2.25;0.60;;;28.50;51.40;;;;;;4914888;29;20056;-84
2022/04/07 12:46:20;;;;;;;4.50;0.68;;;28.90;50.10;;;;;;4917839;29;20013;-82
2022/04/07 12:49:03;;;;;;;2.67;0.52;;;28.50;50.80;;;;;;4914484;29;20037;-85
2022/04/07 12:51:30;;;;;;;2.33;0.35;;;27.30;51.90;;;;;;4898949;29;20032;-84
2022/04/07 12:54:15;;;;;;;1.30;0.60;;;27.90;51.00;;;;;;4914004;29;20025;-85
2022/04/07 12:56:42;;;;;;;5.00;1.10;;;28.40;51.00;;;;;;4914538;29;20123;-84